Time;durP1;ratioP1;P1;durP2;ratioP2;P2;SDS_P1;SDS_P2;PMS_P1;PMS_P2;Temp;Humidity;BMP_temperature;BMP_pressure;BME280_temperature;BME280_humidity;BME280_pressure;Samples;Min_cycle;Max_cycle;Signal;HPM_P1;HPM_P2
2021/09/07 00:01:24;;;;;;;28.83;15.50;;;10.70;60.30;;;;;;5136455;27;20027;-33
2021/09/07 00:03:49;;;;;;;34.67;16.70;;;10.70;60.30;;;;;;5136891;27;20070;-35
2021/09/07 00:06:17;;;;;;;32.10;17.27;;;10.70;60.40;;;;;;5136786;27;20031;-35
2021/09/07 00:08:44;;;;;;;34.20;17.27;;;10.70;60.60;;;;;;5137175;27;20419;-37
2021/09/07 00:11:10;;;;;;;39.90;19.92;;;10.60;60.60;;;;;;5136499;27;20039;-35
2021/09/07 00:13:35;;;;;;;37.90;19.45;;;10.60;60.70;;;;;;5137030;27;20115;-34
2021/09/07 00:16:01;;;;;;;30.83;18.02;;;10.60;60.90;;;;;;5136582;28;20116;-35
2021/09/07 00:18:28;;;;;;;36.47;20.17;;;10.60;60.90;;;;;;5137050;28;20054;-36
2021/09/07 00:20:54;;;;;;;34.00;18.88;;;10.60;61.10;;;;;;5136527;28;20411;-37
2021/09/07 00:23:19;;;;;;;32.92;18.27;;;10.50;61.20;;;;;;5137106;28;20040;-37
2021/09/07 00:25:45;;;;;;;32.65;18.65;;;10.50;61.30;;;;;;5136638;28;20160;-38
2021/09/07 00:28:11;;;;;;;32.85;16.70;;;10.50;61.40;;;;;;5137077;28;20038;-35
2021/09/07 00:30:36;;;;;;;28.52;16.20;;;10.40;61.40;;;;;;5136161;28;20043;-38
2021/09/07 00:33:03;;;;;;;38.58;17.25;;;10.40;61.30;;;;;;5136821;28;20312;-36
2021/09/07 00:35:29;;;;;;;35.78;16.70;;;10.40;61.30;;;;;;5136604;28;20092;-34
2021/09/07 00:37:55;;;;;;;29.80;16.23;;;10.40;61.30;;;;;;5139641;27;20035;-39
2021/09/07 00:40:21;;;;;;;28.17;15.48;;;10.40;61.30;;;;;;5140517;27;20106;-39
2021/09/07 00:42:46;;;;;;;29.70;15.82;;;10.40;61.20;;;;;;5140990;27;20462;-37
2021/09/07 00:45:12;;;;;;;25.38;13.38;;;10.40;61.20;;;;;;5140921;27;20463;-37
2021/09/07 00:47:41;;;;;;;27.50;13.02;;;10.30;61.10;;;;;;5140721;27;20110;-35
2021/09/07 00:50:08;;;;;;;20.75;11.90;;;10.30;61.00;;;;;;5140558;27;20425;-39
2021/09/07 00:52:38;;;;;;;21.42;10.40;;;10.30;61.00;;;;;;5140253;27;20051;-36
2021/09/07 00:55:04;;;;;;;18.92;9.98;;;10.20;61.00;;;;;;5140325;27;20127;-39
2021/09/07 00:57:31;;;;;;;20.65;10.52;;;10.20;61.20;;;;;;5140355;27;20054;-35
2021/09/07 00:59:58;;;;;;;23.98;11.30;;;10.20;61.20;;;;;;5140691;27;20038;-39
2021/09/07 01:02:23;;;;;;;18.67;9.77;;;10.20;61.30;;;;;;5140348;27;20323;-35
2021/09/07 01:04:50;;;;;;;22.23;10.02;;;10.20;61.40;;;;;;5140374;27;20038;-37
2021/09/07 01:07:18;;;;;;;17.35;9.52;;;10.20;61.50;;;;;;5140331;27;20042;-38
2021/09/07 01:09:44;;;;;;;12.60;8.07;;;10.20;61.60;;;;;;5140430;27;20082;-38
2021/09/07 01:12:10;;;;;;;17.48;9.38;;;10.20;61.60;;;;;;5140179;27;20046;-34
2021/09/07 01:14:38;;;;;;;15.07;8.68;;;10.20;61.70;;;;;;5140082;27;20031;-38
2021/09/07 01:17:13;;;;;;;16.25;8.90;;;10.20;61.70;;;;;;5140128;27;20079;-37
2021/09/07 01:19:41;;;;;;;15.23;8.45;;;10.20;62.00;;;;;;5140254;27;20471;-34
2021/09/07 01:22:08;;;;;;;14.18;7.68;;;10.20;62.00;;;;;;5140162;27;20360;-36
2021/09/07 01:24:35;;;;;;;15.45;8.60;;;10.20;62.10;;;;;;5140149;27;20324;-36
2021/09/07 01:27:05;;;;;;;14.15;8.35;;;10.20;62.10;;;;;;5139708;27;20023;-36
2021/09/07 01:29:32;;;;;;;12.93;8.00;;;10.20;62.30;;;;;;5140024;27;20168;-38
2021/09/07 01:31:58;;;;;;;13.73;8.07;;;10.20;62.30;;;;;;5139878;27;20031;-38
2021/09/07 01:34:25;;;;;;;14.13;8.55;;;10.30;62.30;;;;;;5139560;27;20027;-34
2021/09/07 01:36:50;;;;;;;19.85;9.38;;;10.30;62.40;;;;;;5139541;27;20353;-38
2021/09/07 01:39:16;;;;;;;14.25;8.10;;;10.40;62.70;;;;;;5139699;27;20027;-40
2021/09/07 01:41:43;;;;;;;18.58;8.55;;;10.40;62.70;;;;;;5139727;27;20019;-36
2021/09/07 01:44:08;;;;;;;14.65;7.97;;;10.40;62.60;;;;;;5139801;27;20035;-37
2021/09/07 01:46:34;;;;;;;15.13;7.55;;;10.50;62.50;;;;;;5139511;27;20315;-37
2021/09/07 01:49:00;;;;;;;13.15;7.45;;;10.50;62.30;;;;;;5139607;27;20038;-36
2021/09/07 01:51:25;;;;;;;14.15;8.02;;;10.50;62.10;;;;;;5139026;27;20442;-37
2021/09/07 01:53:51;;;;;;;15.43;7.68;;;10.60;62.00;;;;;;5139050;27;20051;-35
2021/09/07 01:56:17;;;;;;;11.68;6.85;;;10.60;61.90;;;;;;5139105;27;20023;-36
2021/09/07 01:58:42;;;;;;;12.57;6.63;;;10.60;61.90;;;;;;5139640;27;20027;-38
2021/09/07 02:01:08;;;;;;;16.60;8.13;;;10.70;61.90;;;;;;5139161;27;20031;-38
2021/09/07 02:03:34;;;;;;;13.38;8.07;;;10.70;61.90;;;;;;5138939;27;20111;-39
2021/09/07 02:05:59;;;;;;;14.18;7.28;;;10.70;61.90;;;;;;5138998;27;20491;-38
2021/09/07 02:08:25;;;;;;;13.85;7.22;;;10.70;61.80;;;;;;5139497;27;20022;-33
2021/09/07 02:10:51;;;;;;;14.55;7.47;;;10.80;61.80;;;;;;5138754;27;20028;-33
2021/09/07 02:13:16;;;;;;;14.77;7.03;;;10.80;61.60;;;;;;5139215;27;20034;-32
2021/09/07 02:15:42;;;;;;;14.32;8.13;;;10.80;61.60;;;;;;5138593;27;20019;-32
2021/09/07 02:18:09;;;;;;;12.80;6.97;;;10.80;61.60;;;;;;5139304;27;20054;-32
2021/09/07 02:20:34;;;;;;;12.88;7.55;;;10.80;61.50;;;;;;5138790;27;20458;-33
2021/09/07 02:23:00;;;;;;;14.18;7.15;;;10.80;61.40;;;;;;5139193;27;20054;-32
2021/09/07 02:25:26;;;;;;;14.48;7.60;;;10.80;61.30;;;;;;5138498;27;20466;-34
2021/09/07 02:27:51;;;;;;;15.82;7.72;;;10.90;61.30;;;;;;5138972;27;20035;-33
2021/09/07 02:30:17;;;;;;;11.75;7.25;;;10.90;61.20;;;;;;5138830;27;20031;-33
2021/09/07 02:32:43;;;;;;;16.50;8.30;;;10.90;61.10;;;;;;5138542;27;20026;-32
2021/09/07 02:35:09;;;;;;;14.32;6.82;;;10.90;61.00;;;;;;5138935;27;20031;-32
2021/09/07 02:37:35;;;;;;;14.35;7.85;;;10.90;60.80;;;;;;5120128;27;20054;-33
2021/09/07 02:40:00;;;;;;;12.73;7.57;;;10.90;60.80;;;;;;5120294;27;20028;-32
2021/09/07 02:42:26;;;;;;;11.57;6.90;;;10.90;60.70;;;;;;5138408;27;20031;-33
2021/09/07 02:44:52;;;;;;;11.85;6.78;;;11.00;60.60;;;;;;5138276;27;20043;-33
2021/09/07 02:47:17;;;;;;;15.82;7.25;;;10.90;60.50;;;;;;5138369;27;20027;-32
2021/09/07 02:49:43;;;;;;;12.95;7.78;;;10.90;60.40;;;;;;5138471;27;20038;-32
2021/09/07 02:52:09;;;;;;;13.00;7.05;;;10.90;60.40;;;;;;5138090;27;20058;-33
2021/09/07 02:54:34;;;;;;;12.35;7.50;;;10.90;60.40;;;;;;5137878;27;20096;-32
2021/09/07 02:57:00;;;;;;;13.23;7.35;;;10.80;60.40;;;;;;5138370;27;20027;-32
2021/09/07 02:59:25;;;;;;;14.52;7.63;;;10.80;60.50;;;;;;5137849;27;20291;-32
2021/09/07 03:01:51;;;;;;;15.63;8.98;;;10.80;60.60;;;;;;5137914;27;20039;-33
2021/09/07 03:04:17;;;;;;;19.52;9.73;;;10.80;60.70;;;;;;5137960;27;20072;-32
2021/09/07 03:06:43;;;;;;;16.30;9.10;;;10.70;60.80;;;;;;5137656;27;20035;-32
2021/09/07 03:09:08;;;;;;;19.52;8.77;;;10.60;60.90;;;;;;5137813;27;20049;-32
2021/09/07 03:11:34;;;;;;;17.42;9.82;;;10.60;60.90;;;;;;5137777;27;20032;-33
2021/09/07 03:14:00;;;;;;;16.30;9.73;;;10.60;61.00;;;;;;5137602;27;20073;-33
2021/09/07 03:16:26;;;;;;;17.77;8.70;;;10.50;61.20;;;;;;5137511;27;20026;-32
2021/09/07 03:18:52;;;;;;;16.42;9.48;;;10.40;61.20;;;;;;5137523;27;20035;-33
2021/09/07 03:21:17;;;;;;;17.60;9.73;;;10.40;61.30;;;;;;5137637;27;20156;-33
2021/09/07 03:23:43;;;;;;;19.17;10.15;;;10.30;61.40;;;;;;5138114;27;20027;-33
2021/09/07 03:26:09;;;;;;;17.30;10.45;;;10.30;61.60;;;;;;5137700;27;20115;-32
2021/09/07 03:28:35;;;;;;;20.45;10.15;;;10.20;61.70;;;;;;5137700;27;20031;-32
2021/09/07 03:31:01;;;;;;;21.52;10.75;;;10.20;61.80;;;;;;5137159;27;20039;-33
2021/09/07 03:33:26;;;;;;;19.10;10.50;;;10.10;62.40;;;;;;5136907;27;20023;-33
2021/09/07 03:35:52;;;;;;;22.20;11.07;;;10.10;62.00;;;;;;5137564;27;20031;-33
2021/09/07 03:38:18;;;;;;;19.63;10.82;;;10.00;62.10;;;;;;5137761;27;20030;-32
2021/09/07 03:40:43;;;;;;;22.63;10.95;;;10.00;62.30;;;;;;5137033;27;20043;-33
2021/09/07 03:43:09;;;;;;;18.85;10.07;;;10.00;62.40;;;;;;5137564;27;20031;-33
2021/09/07 03:45:35;;;;;;;20.27;11.02;;;9.90;62.50;;;;;;5136894;27;20046;-33
2021/09/07 03:48:00;;;;;;;21.83;11.00;;;9.90;62.60;;;;;;5137761;27;20030;-32
2021/09/07 03:50:26;;;;;;;19.05;10.00;;;9.80;62.60;;;;;;5136945;27;20064;-32
2021/09/07 03:52:52;;;;;;;16.13;10.02;;;9.80;62.70;;;;;;5118669;27;20110;-32
2021/09/07 03:55:17;;;;;;;22.75;10.60;;;9.80;62.80;;;;;;5136992;27;20023;-33
2021/09/07 03:57:43;;;;;;;22.90;10.35;;;9.80;62.90;;;;;;5137058;27;20032;-32
2021/09/07 04:00:09;;;;;;;22.25;11.18;;;9.80;63.00;;;;;;5118594;27;20476;-32
2021/09/07 04:02:35;;;;;;;20.75;11.15;;;9.80;63.00;;;;;;5136538;27;20122;-32
2021/09/07 04:05:00;;;;;;;20.40;11.57;;;9.70;63.10;;;;;;5137171;27;20367;-32
2021/09/07 04:07:26;;;;;;;19.15;11.05;;;9.70;63.30;;;;;;5136793;27;20105;-33
2021/09/07 04:09:52;;;;;;;20.95;11.15;;;9.70;63.40;;;;;;5136865;27;20059;-33
2021/09/07 04:12:17;;;;;;;17.50;10.55;;;9.70;63.60;;;;;;5135592;27;20470;-32
2021/09/07 04:14:43;;;;;;;22.40;9.77;;;9.70;63.80;;;;;;5136502;27;20035;-32
2021/09/07 04:17:09;;;;;;;20.17;10.73;;;9.80;63.90;;;;;;5136792;28;20179;-32
2021/09/07 04:19:35;;;;;;;21.70;11.55;;;9.80;63.80;;;;;;5136622;28;20381;-33
2021/09/07 04:22:01;;;;;;;19.40;11.13;;;9.90;63.70;;;;;;5136912;28;20063;-32
2021/09/07 04:24:26;;;;;;;29.88;16.67;;;9.90;63.50;;;;;;5136384;28;20033;-32
2021/09/07 04:26:55;;;;;;;25.25;11.85;;;10.00;63.50;;;;;;5136502;28;20038;-32
2021/09/07 04:29:21;;;;;;;21.92;11.48;;;10.00;63.40;;;;;;5136585;28;20384;-32
2021/09/07 04:31:47;;;;;;;26.40;12.68;;;10.10;63.30;;;;;;5136058;28;20077;-32
2021/09/07 04:34:13;;;;;;;24.77;12.15;;;10.10;63.30;;;;;;5136322;28;20077;-32
2021/09/07 04:36:39;;;;;;;31.70;14.20;;;10.20;63.30;;;;;;5136199;28;20188;-32
2021/09/07 04:39:05;;;;;;;38.47;17.35;;;10.30;63.30;;;;;;5136387;28;20041;-32
2021/09/07 04:41:31;;;;;;;22.40;11.75;;;10.40;63.30;;;;;;5136207;28;20035;-32
2021/09/07 04:43:57;;;;;;;28.67;12.95;;;10.40;63.30;;;;;;5136516;28;20042;-32
2021/09/07 04:46:23;;;;;;;29.33;14.23;;;10.50;63.30;;;;;;5136237;28;20031;-32
2021/09/07 04:48:54;;;;;;;20.45;10.93;;;10.60;63.20;;;;;;5136440;28;20325;-32
2021/09/07 04:51:23;;;;;;;24.23;11.18;;;10.70;63.10;;;;;;5136516;28;20031;-32
2021/09/07 04:53:49;;;;;;;23.80;11.18;;;10.80;63.10;;;;;;5135838;28;20051;-32
2021/09/07 04:56:15;;;;;;;26.15;11.13;;;10.80;62.90;;;;;;5136013;28;20122;-33
2021/09/07 04:58:41;;;;;;;20.67;8.93;;;11.00;63.40;;;;;;5136508;28;20076;-33
2021/09/07 05:01:06;;;;;;;34.58;11.18;;;11.10;62.60;;;;;;5136140;28;20031;-32
2021/09/07 05:03:32;;;;;;;21.95;9.35;;;11.20;62.30;;;;;;5136449;28;20031;-33
2021/09/07 05:05:58;;;;;;;27.67;9.82;;;11.30;61.90;;;;;;5135993;28;20035;-33
2021/09/07 05:08:24;;;;;;;22.77;9.07;;;11.40;61.60;;;;;;5136259;28;20403;-32
2021/09/07 05:10:49;;;;;;;21.23;8.63;;;11.60;61.30;;;;;;5135527;28;20031;-33
2021/09/07 05:13:15;;;;;;;21.38;8.07;;;11.70;61.10;;;;;;5136233;28;20031;-32
2021/09/07 05:15:41;;;;;;;18.00;7.80;;;11.80;60.80;;;;;;5135570;28;20035;-33
2021/09/07 05:18:07;;;;;;;20.15;9.93;;;11.90;60.60;;;;;;5136278;28;20027;-33
2021/09/07 05:20:32;;;;;;;28.83;10.38;;;12.10;60.40;;;;;;5135359;28;20107;-32
2021/09/07 05:22:58;;;;;;;31.80;9.10;;;12.20;60.20;;;;;;5136977;27;20023;-32
2021/09/07 05:25:26;;;;;;;13.13;7.35;;;12.30;59.90;;;;;;5139495;27;20287;-32
2021/09/07 05:27:52;;;;;;;21.08;7.72;;;12.40;59.50;;;;;;5139915;27;20119;-32
2021/09/07 05:30:17;;;;;;;13.35;7.63;;;12.50;59.40;;;;;;5139642;27;20416;-32
2021/09/07 05:32:43;;;;;;;15.88;8.73;;;12.60;58.90;;;;;;5139199;27;20023;-33
2021/09/07 05:35:09;;;;;;;19.30;8.38;;;12.70;58.70;;;;;;5139333;27;20067;-33
2021/09/07 05:37:39;;;;;;;14.15;7.82;;;12.80;58.50;;;;;;5139262;27;20064;-32
2021/09/07 05:40:10;;;;;;;15.25;8.50;;;12.90;58.30;;;;;;5138947;27;20074;-32
2021/09/07 05:42:38;;;;;;;16.55;8.27;;;13.10;58.10;;;;;;5139250;27;20027;-36
2021/09/07 05:45:04;;;;;;;12.38;7.00;;;13.20;57.90;;;;;;5139365;27;20035;-36
2021/09/07 05:47:30;;;;;;;19.55;9.15;;;13.30;57.50;;;;;;5139253;27;20378;-34
2021/09/07 05:49:55;;;;;;;18.10;9.80;;;13.40;57.50;;;;;;5139159;27;20356;-39
2021/09/07 05:52:21;;;;;;;16.95;8.60;;;13.50;57.30;;;;;;5139248;27;20054;-35
2021/09/07 05:54:47;;;;;;;20.70;9.93;;;13.50;57.00;;;;;;5138586;27;20232;-37
2021/09/07 05:57:12;;;;;;;15.75;9.10;;;13.60;56.90;;;;;;5139053;27;20020;-37
2021/09/07 05:59:38;;;;;;;20.80;10.13;;;13.70;56.80;;;;;;5138994;27;20027;-41
2021/09/07 06:02:04;;;;;;;14.95;7.60;;;13.80;56.60;;;;;;5139213;27;20468;-36
2021/09/07 06:04:29;;;;;;;14.43;6.75;;;13.90;56.30;;;;;;5138802;27;20035;-39
2021/09/07 06:06:55;;;;;;;15.52;6.55;;;14.00;55.90;;;;;;5138633;27;20035;-39
2021/09/07 06:09:21;;;;;;;11.18;6.28;;;14.10;55.60;;;;;;5120469;27;20111;-36
2021/09/07 06:11:47;;;;;;;15.48;7.00;;;14.20;55.30;;;;;;5138456;27;20096;-40
2021/09/07 06:14:12;;;;;;;14.15;7.28;;;14.30;55.10;;;;;;5138495;27;20068;-41
2021/09/07 06:16:38;;;;;;;12.07;6.22;;;14.30;54.70;;;;;;5138343;27;20051;-38
2021/09/07 06:19:04;;;;;;;11.50;5.47;;;14.40;54.60;;;;;;5138602;27;20072;-38
2021/09/07 06:21:29;;;;;;;16.15;6.97;;;14.50;54.40;;;;;;5138430;27;20032;-39
2021/09/07 06:23:55;;;;;;;13.57;5.82;;;14.60;54.40;;;;;;5138505;27;20063;-39
2021/09/07 06:26:21;;;;;;;10.27;5.93;;;14.70;54.30;;;;;;5138261;27;20035;-39
2021/09/07 06:28:46;;;;;;;13.85;5.65;;;14.80;53.90;;;;;;5138482;27;20426;-37
2021/09/07 06:31:12;;;;;;;10.32;5.57;;;14.80;53.20;;;;;;5138281;27;20026;-38
2021/09/07 06:33:38;;;;;;;9.68;4.65;;;14.90;53.00;;;;;;5138666;27;20235;-36
2021/09/07 06:36:04;;;;;;;9.75;4.35;;;15.00;52.70;;;;;;5137552;27;20076;-35
2021/09/07 06:38:29;;;;;;;10.00;4.90;;;15.10;52.60;;;;;;5138588;27;20031;-37
2021/09/07 06:40:55;;;;;;;10.65;6.88;;;15.20;53.00;;;;;;5138038;27;20322;-37
2021/09/07 06:43:21;;;;;;;8.82;4.18;;;15.20;53.00;;;;;;5138377;27;20027;-36
2021/09/07 06:45:47;;;;;;;11.90;4.88;;;15.30;52.00;;;;;;5137746;27;20038;-37
2021/09/07 06:48:13;;;;;;;8.60;4.57;;;15.40;51.20;;;;;;5138577;27;20023;-37
2021/09/07 06:50:39;;;;;;;10.60;5.00;;;15.40;51.00;;;;;;5137650;27;20039;-38
2021/09/07 06:53:04;;;;;;;8.00;4.32;;;15.50;51.30;;;;;;5137973;27;20348;-35
2021/09/07 06:55:30;;;;;;;9.10;4.80;;;15.60;50.50;;;;;;5137588;27;20033;-40
2021/09/07 06:57:57;;;;;;;8.30;3.85;;;15.70;50.90;;;;;;5138027;27;20019;-38
2021/09/07 07:00:23;;;;;;;7.55;4.45;;;15.80;50.90;;;;;;5137580;27;20050;-41
2021/09/07 07:02:49;;;;;;;7.82;4.97;;;15.90;51.90;;;;;;5137750;27;20027;-37
2021/09/07 07:05:15;;;;;;;9.15;5.30;;;15.90;52.10;;;;;;5137648;27;20030;-36
2021/09/07 07:07:41;;;;;;;7.43;4.70;;;16.10;52.50;;;;;;5137729;27;20035;-37
2021/09/07 07:10:06;;;;;;;11.18;4.07;;;16.10;52.70;;;;;;5137379;27;20026;-40
2021/09/07 07:12:32;;;;;;;10.38;4.65;;;16.20;53.10;;;;;;5137448;27;20038;-40
2021/09/07 07:14:58;;;;;;;7.82;4.53;;;16.30;52.90;;;;;;5136667;27;20038;-37
2021/09/07 07:17:23;;;;;;;7.68;4.00;;;16.40;53.30;;;;;;5136354;27;20027;-38
2021/09/07 07:19:51;;;;;;;6.28;3.92;;;16.50;52.80;;;;;;5136228;27;20027;-40
2021/09/07 07:22:16;;;;;;;8.43;4.25;;;16.60;52.40;;;;;;5137026;27;20023;-39
2021/09/07 07:24:42;;;;;;;8.00;4.10;;;16.70;52.20;;;;;;5136353;27;20035;-36
2021/09/07 07:27:08;;;;;;;10.23;3.90;;;16.70;52.20;;;;;;5129258;27;20027;-40
2021/09/07 07:29:33;;;;;;;9.07;3.92;;;16.70;52.20;;;;;;5129918;27;20107;-38
2021/09/07 07:31:59;;;;;;;14.60;5.38;;;16.80;52.40;;;;;;5133778;27;20035;-38
2021/09/07 07:34:25;;;;;;;6.90;3.83;;;16.80;52.50;;;;;;5135060;27;20485;-38
2021/09/07 07:36:54;;;;;;;6.53;3.90;;;16.80;52.60;;;;;;5135440;27;20051;-46
2021/09/07 07:39:21;;;;;;;8.97;3.77;;;16.80;52.40;;;;;;5136794;27;20061;-38
2021/09/07 07:41:47;;;;;;;13.98;8.20;;;16.90;52.20;;;;;;5136367;27;20057;-36
2021/09/07 07:44:12;;;;;;;20.17;8.00;;;16.90;52.90;;;;;;5134939;27;20035;-37
2021/09/07 07:46:38;;;;;;;9.98;5.53;;;17.00;52.20;;;;;;5136388;27;20031;-38
2021/09/07 07:49:04;;;;;;;8.23;4.30;;;17.00;52.40;;;;;;5136662;27;20015;-40
2021/09/07 07:51:30;;;;;;;8.48;4.43;;;17.10;52.40;;;;;;5136429;27;20015;-39
2021/09/07 07:53:56;;;;;;;8.48;4.95;;;17.10;52.70;;;;;;5136322;27;20055;-43
2021/09/07 07:56:21;;;;;;;21.90;12.45;;;17.10;52.20;;;;;;5136471;27;20438;-40
2021/09/07 07:58:47;;;;;;;24.90;15.75;;;17.20;52.10;;;;;;5131984;27;20438;-41
2021/09/07 08:01:12;;;;;;;18.77;11.60;;;17.30;51.80;;;;;;5136480;27;20027;-35
2021/09/07 08:03:40;;;;;;;15.48;7.55;;;17.30;51.50;;;;;;5136797;27;20079;-41
2021/09/07 08:06:06;;;;;;;10.15;4.57;;;17.30;51.20;;;;;;5136382;27;20125;-37
2021/09/07 08:08:31;;;;;;;15.00;9.70;;;17.40;51.10;;;;;;5136330;27;20027;-40
2021/09/07 08:10:57;;;;;;;19.02;11.30;;;17.50;51.40;;;;;;5136074;27;20160;-40
2021/09/07 08:13:23;;;;;;;14.48;8.88;;;17.50;51.00;;;;;;5136371;27;20055;-39
2021/09/07 08:15:48;;;;;;;10.10;4.90;;;17.60;51.10;;;;;;5136206;27;20023;-39
2021/09/07 08:18:14;;;;;;;9.02;5.38;;;17.60;50.80;;;;;;5135869;27;20415;-40
2021/09/07 08:20:40;;;;;;;12.32;6.30;;;17.70;51.00;;;;;;5135961;27;20574;-41
2021/09/07 08:23:05;;;;;;;9.90;5.00;;;17.70;50.90;;;;;;5136407;27;20027;-36
2021/09/07 08:25:31;;;;;;;11.05;4.53;;;17.80;51.00;;;;;;5136267;28;20030;-35
2021/09/07 08:27:56;;;;;;;17.88;7.88;;;17.80;51.00;;;;;;5135985;28;20315;-36
2021/09/07 08:30:22;;;;;;;9.48;6.68;;;17.90;51.00;;;;;;5136199;28;20054;-36
2021/09/07 08:32:48;;;;;;;9.45;4.57;;;17.90;51.20;;;;;;5135702;28;20035;-36
2021/09/07 08:35:14;;;;;;;5.70;3.53;;;18.00;51.20;;;;;;5136073;28;20032;-40
2021/09/07 08:37:41;;;;;;;8.15;5.22;;;18.00;51.20;;;;;;5135919;28;20028;-41
2021/09/07 08:40:09;;;;;;;11.07;4.22;;;18.00;51.00;;;;;;5136047;28;20032;-40
2021/09/07 08:42:35;;;;;;;44.58;32.55;;;18.00;50.60;;;;;;5135754;28;20111;-33
2021/09/07 08:45:05;;;;;;;11.40;7.13;;;18.00;50.20;;;;;;5136026;28;20031;-34
2021/09/07 08:47:31;;;;;;;;;;;18.00;50.00;;;;;;5117739;28;20035;-35
2021/09/07 08:49:57;;;;;;;15.00;7.93;;;18.10;50.30;;;;;;5135566;28;19915;-33
2021/09/07 08:52:24;;;;;;;7.88;4.80;;;18.10;50.00;;;;;;5135168;28;20030;-32
2021/09/07 08:54:50;;;;;;;22.70;15.52;;;18.10;49.60;;;;;;5135399;28;20320;-32
2021/09/07 08:57:16;;;;;;;9.93;5.57;;;18.10;50.00;;;;;;5135549;27;20038;-34
2021/09/07 08:59:43;;;;;;;12.00;4.70;;;18.10;50.50;;;;;;5140028;27;20319;-33
2021/09/07 09:02:16;;;;;;;7.85;4.93;;;18.20;50.40;;;;;;5139718;27;20061;-32
2021/09/07 09:04:47;;;;;;;6.35;4.45;;;18.30;50.60;;;;;;5139474;27;20031;-34
2021/09/07 09:07:21;;;;;;;11.10;7.95;;;18.30;50.50;;;;;;5139600;27;20047;-32
2021/09/07 09:09:49;;;;;;;8.52;4.00;;;18.40;49.80;;;;;;5140061;27;20411;-32
2021/09/07 09:12:15;;;;;;;7.25;4.60;;;18.40;49.30;;;;;;5139403;27;20063;-35
2021/09/07 09:14:47;;;;;;;13.57;7.28;;;18.40;48.80;;;;;;5139501;27;20045;-33
2021/09/07 09:17:18;;;;;;;11.63;5.70;;;18.50;49.00;;;;;;5139164;27;20047;-34
2021/09/07 09:19:59;;;;;;;7.00;4.43;;;18.60;49.00;;;;;;5139849;27;20222;-34
2021/09/07 09:22:49;;;;;;;7.82;5.40;;;18.60;48.90;;;;;;5139366;27;20303;-34
2021/09/07 09:25:21;;;;;;;9.48;5.38;;;18.70;48.50;;;;;;5139744;27;20031;-34
2021/09/07 09:27:48;;;;;;;9.93;5.00;;;18.70;48.50;;;;;;5139465;27;20023;-35
2021/09/07 09:30:15;;;;;;;4.82;3.40;;;18.80;47.70;;;;;;5139474;27;20149;-40
2021/09/07 09:32:48;;;;;;;7.15;3.55;;;18.80;47.50;;;;;;5138745;27;20030;-41
2021/09/07 09:35:14;;;;;;;6.25;4.00;;;18.90;47.90;;;;;;5120481;27;20492;-40
2021/09/07 09:37:53;;;;;;;6.30;3.65;;;19.00;47.10;;;;;;5138808;27;20066;-40
2021/09/07 09:40:19;;;;;;;6.13;3.42;;;19.00;46.30;;;;;;5139475;27;20119;-40
2021/09/07 09:42:45;;;;;;;4.35;3.13;;;19.10;46.10;;;;;;5138601;27;20108;-38
2021/09/07 09:45:11;;;;;;;5.30;3.38;;;19.00;46.00;;;;;;5138999;27;20042;-39
2021/09/07 09:47:40;;;;;;;8.45;4.80;;;19.00;45.90;;;;;;5138770;27;20027;-39
2021/09/07 09:50:06;;;;;;;12.50;8.57;;;19.10;46.10;;;;;;5139013;27;20301;-42
2021/09/07 09:52:38;;;;;;;6.05;4.28;;;19.10;46.20;;;;;;5138346;27;20292;-39
2021/09/07 09:55:05;;;;;;;6.75;3.85;;;19.20;46.10;;;;;;5138768;27;20043;-41
2021/09/07 09:57:33;;;;;;;8.70;3.83;;;19.20;46.00;;;;;;5138409;27;20027;-41
2021/09/07 10:00:02;;;;;;;8.50;3.75;;;19.20;45.80;;;;;;5139127;27;20031;-31
2021/09/07 10:02:29;;;;;;;12.93;7.05;;;19.30;45.30;;;;;;5138525;27;20080;-33
2021/09/07 10:04:55;;;;;;;9.85;6.40;;;19.30;45.20;;;;;;5138335;27;20039;-33
2021/09/07 10:07:21;;;;;;;8.13;4.75;;;19.40;45.10;;;;;;5138331;27;20030;-32
2021/09/07 10:09:48;;;;;;;11.15;8.23;;;19.40;44.30;;;;;;5137222;27;20031;-32
2021/09/07 10:12:26;;;;;;;10.48;4.50;;;19.50;44.00;;;;;;5138294;27;20053;-34
2021/09/07 10:15:12;;;;;;;8.23;4.47;;;19.60;43.80;;;;;;5138411;27;20031;-32
2021/09/07 10:17:55;;;;;;;9.85;6.10;;;19.60;43.60;;;;;;5137680;27;20015;-35
2021/09/07 10:20:54;;;;;;;8.00;4.43;;;19.70;43.70;;;;;;5138331;27;20028;-34
2021/09/07 10:26:14;;;;;;;7.18;4.30;;;19.80;43.40;;;;;;5137328;27;20038;-35
2021/09/07 10:28:42;;;;;;;7.18;4.68;;;19.90;43.40;;;;;;5137784;27;20039;-34
2021/09/07 10:31:21;;;;;;;5.97;4.10;;;19.90;42.90;;;;;;5138217;27;20087;-34
2021/09/07 10:33:56;;;;;;;7.72;4.88;;;19.90;42.90;;;;;;5138328;27;20027;-34
2021/09/07 10:36:27;;;;;;;7.82;4.68;;;20.00;42.60;;;;;;5138137;27;20051;-35
2021/09/07 10:38:55;;;;;;;10.48;4.18;;;20.10;42.40;;;;;;5138154;27;20058;-37
2021/09/07 10:41:33;;;;;;;12.00;4.43;;;20.10;42.00;;;;;;5137551;27;20023;-42
2021/09/07 10:44:01;;;;;;;12.85;6.25;;;20.20;42.00;;;;;;5138213;27;20038;-41
2021/09/07 10:46:38;;;;;;;8.98;4.28;;;20.20;41.90;;;;;;5137584;27;20428;-37
2021/09/07 10:49:26;;;;;;;9.80;5.07;;;20.30;41.40;;;;;;5137921;27;20055;-39
2021/09/07 10:52:10;;;;;;;6.35;3.70;;;20.40;41.20;;;;;;5137313;27;20323;-39
2021/09/07 10:54:53;;;;;;;6.85;3.60;;;20.50;40.80;;;;;;5137262;27;20423;-36
2021/09/07 10:57:38;;;;;;;6.80;4.28;;;20.60;41.10;;;;;;5137953;27;20079;-38
2021/09/07 11:00:13;;;;;;;8.85;4.05;;;20.70;41.20;;;;;;5137660;27;20031;-40
2021/09/07 11:02:43;;;;;;;7.57;4.18;;;20.80;41.50;;;;;;5137324;27;20102;-39
2021/09/07 11:05:10;;;;;;;6.88;3.83;;;20.90;41.30;;;;;;5137878;27;20411;-36
2021/09/07 11:07:40;;;;;;;10.25;5.18;;;21.00;41.20;;;;;;5137655;27;20043;-38
2021/09/07 11:10:26;;;;;;;7.10;3.90;;;21.10;40.50;;;;;;5137514;27;20106;-38
2021/09/07 11:13:03;;;;;;;10.82;4.63;;;21.20;40.30;;;;;;5120037;27;20051;-40
2021/09/07 11:15:32;;;;;;;10.38;5.22;;;21.30;39.80;;;;;;5136970;27;20066;-40
2021/09/07 11:18:25;;;;;;;10.52;5.70;;;21.30;40.20;;;;;;5137657;27;20035;-37
2021/09/07 11:20:52;;;;;;;10.75;6.82;;;21.30;39.80;;;;;;5122920;27;20127;-38
2021/09/07 11:23:20;;;;;;;16.42;10.48;;;21.40;39.80;;;;;;5137495;27;20033;-38
2021/09/07 11:25:50;;;;;;;15.00;8.25;;;21.40;39.50;;;;;;5136846;27;20458;-42
2021/09/07 11:28:17;;;;;;;14.32;7.75;;;21.40;39.40;;;;;;5119045;27;20031;-38
2021/09/07 11:30:53;;;;;;;9.35;5.57;;;21.50;39.80;;;;;;5136903;27;20027;-36
2021/09/07 11:33:24;;;;;;;16.45;6.55;;;21.40;38.90;;;;;;5136733;27;20023;-41
2021/09/07 11:35:54;;;;;;;10.30;5.45;;;21.40;39.30;;;;;;5136666;27;20027;-37
2021/09/07 11:38:21;;;;;;;15.30;7.35;;;21.40;39.50;;;;;;5137315;27;20019;-39
2021/09/07 11:40:49;;;;;;;20.60;6.22;;;21.50;40.10;;;;;;5136746;27;20059;-41
2021/09/07 11:43:33;;;;;;;16.95;6.40;;;21.50;40.10;;;;;;5137252;27;20311;-35
2021/09/07 11:46:12;;;;;;;13.25;5.72;;;21.60;39.90;;;;;;5136347;27;20083;-36
2021/09/07 11:48:45;;;;;;;14.13;7.57;;;21.70;39.30;;;;;;5136879;27;20084;-36
2021/09/07 11:51:12;;;;;;;12.70;6.78;;;21.80;38.90;;;;;;5136321;27;20122;-40
2021/09/07 11:53:38;;;;;;;14.05;5.85;;;21.90;39.00;;;;;;5136336;27;20046;-41
2021/09/07 11:56:04;;;;;;;16.50;5.30;;;22.00;39.10;;;;;;5131576;27;20024;-39
2021/09/07 11:58:40;;;;;;;9.68;4.82;;;22.20;38.70;;;;;;5136575;27;20031;-40
2021/09/07 12:01:05;;;;;;;14.55;5.95;;;22.40;38.40;;;;;;5136005;27;20031;-39
2021/09/07 12:03:40;;;;;;;14.55;6.50;;;22.50;38.00;;;;;;5136634;27;20027;-36
2021/09/07 12:06:07;;;;;;;17.65;6.65;;;22.70;38.10;;;;;;5135599;27;20114;-37
2021/09/07 12:08:39;;;;;;;16.55;6.60;;;22.80;37.90;;;;;;5136684;27;20058;-40
2021/09/07 12:11:07;;;;;;;22.73;8.10;;;23.00;38.00;;;;;;5136040;27;20024;-36
2021/09/07 12:13:34;;;;;;;18.85;9.32;;;23.20;37.40;;;;;;5136620;27;20110;-42
2021/09/07 12:16:01;;;;;;;12.63;6.40;;;23.40;37.50;;;;;;5135972;27;20371;-40
2021/09/07 12:18:28;;;;;;;14.82;7.22;;;23.60;37.10;;;;;;5136588;27;20051;-39
2021/09/07 12:21:12;;;;;;;14.27;7.55;;;23.80;36.70;;;;;;5135667;27;20031;-41
2021/09/07 12:23:44;;;;;;;15.60;7.00;;;24.00;36.10;;;;;;5118012;27;20079;-40
2021/09/07 12:26:10;;;;;;;14.00;6.85;;;24.20;35.80;;;;;;5135873;27;20038;-40
2021/09/07 12:28:37;;;;;;;12.63;6.53;;;24.30;35.70;;;;;;5136361;28;20031;-43
2021/09/07 12:31:10;;;;;;;13.55;6.22;;;24.50;35.30;;;;;;5135413;28;20031;-42
2021/09/07 12:33:47;;;;;;;10.75;5.63;;;24.70;35.10;;;;;;5138347;27;20023;-39
2021/09/07 12:36:15;;;;;;;16.67;6.55;;;24.80;34.90;;;;;;5139873;27;20019;-38
2021/09/07 12:38:40;;;;;;;22.60;9.25;;;25.00;34.90;;;;;;5140537;27;20027;-38
2021/09/07 12:41:12;;;;;;;14.77;7.10;;;25.10;34.60;;;;;;5140166;27;20377;-41
2021/09/07 12:43:41;;;;;;;12.85;6.07;;;25.20;34.30;;;;;;5140087;27;20479;-38